Ray, North Dakota
Current Conditions -  °F | °C
As of 1:35 PM on Thursday 30 Oct 2014 (Local Time) from KD60 Reporting Station
Broken Clouds Broken Clouds  
Wind Chill: 26°   Ceiling: 800
Heat Index: 32°   Visibility: 8mi
Dew Point: 32°   Wind: 6mph
Humidity: 100%   Direction: 50°NE
Pressure: 30.47"   Gusts: NA
Location:  48.34°N, 103.17°W
Report Text: KD60 301835Z AUTO 05005KT 8SM BKN008 00/00 A3047 RMK AO2
Loading
Personal Weather Stations






























Interactive Weather Map
Tropical Storm Tracking
New forecast layout! Learn more

10-Day Weather Forecast

Advertisements
Track Severe Weather on mobile